Time,TemperatureF,DewpointF,PressureIn,WindDirection,WindDirectionDegrees,WindSpeedMPH,WindSpeedGustMPH,Humidity,HourlyPrecipIn,Conditions,Clouds,dailyrainin,SoftwareType,DateUTC
2013-03-08 00:03:00,32.0,24.3,30.05,SSE,157,0.0,-999.0,73,-99.99,,,0.00,Acu-Link.com,2013-03-08 05:03:00,
2013-03-08 00:18:00,32.0,25.6,30.04,NNE,22,0.0,-999.0,77,-99.99,,,0.00,Acu-Link.com,2013-03-08 05:18:00,
2013-03-08 00:34:00,30.2,24.5,30.04,NNE,22,0.0,-999.0,79,-99.99,,,0.00,Acu-Link.com,2013-03-08 05:34:00,
2013-03-08 00:49:00,30.2,24.5,30.04,NE,45,0.0,-999.0,79,-99.99,,,0.00,Acu-Link.com,2013-03-08 05:49:00,
2013-03-08 01:04:00,30.2,24.8,30.03,WNW,292,1.1,-999.0,80,-99.99,,,0.00,Acu-Link.com,2013-03-08 06:04:00,
2013-03-08 01:19:00,30.2,24.8,30.03,WNW,292,2.0,-999.0,80,-99.99,,,0.00,Acu-Link.com,2013-03-08 06:19:00,
2013-03-08 01:34:00,30.2,24.8,30.03,NNW,337,1.6,-999.0,80,-99.99,,,0.00,Acu-Link.com,2013-03-08 06:34:00,
2013-03-08 01:49:00,32.0,24.7,30.02,ESE,112,3.1,-999.0,74,-99.99,,,0.00,Acu-Link.com,2013-03-08 06:49:00,
2013-03-08 02:05:00,32.0,23.7,30.02,NNE,22,2.7,-999.0,71,-99.99,,,0.00,Acu-Link.com,2013-03-08 07:05:00,
2013-03-08 02:20:00,32.0,23.7,30.02,East,90,1.1,-999.0,71,-99.99,,,0.00,Acu-Link.com,2013-03-08 07:20:00,
2013-03-08 02:35:00,32.0,23.7,30.03,NNW,337,1.6,-999.0,71,-99.99,,,0.00,Acu-Link.com,2013-03-08 07:35:00,
2013-03-08 02:50:00,32.0,24.3,30.02,West,270,1.1,-999.0,73,-99.99,,,0.00,Acu-Link.com,2013-03-08 07:50:00,
2013-03-08 03:05:00,30.2,22.9,30.02,NNW,337,1.6,-999.0,74,-99.99,,,0.00,Acu-Link.com,2013-03-08 08:05:00,
2013-03-08 03:20:00,30.2,23.6,30.02,North,0,0.0,-999.0,76,-99.99,,,0.00,Acu-Link.com,2013-03-08 08:20:00,
2013-03-08 03:36:00,30.2,24.5,30.02,ENE,67,0.0,-999.0,79,-99.99,,,0.00,Acu-Link.com,2013-03-08 08:36:00,
2013-03-08 03:51:00,28.4,23.0,30.01,NNE,22,1.1,-999.0,80,-99.99,,,0.00,Acu-Link.com,2013-03-08 08:51:00,
2013-03-08 04:06:00,28.4,23.6,30.01,NNE,22,0.0,-999.0,82,-99.99,,,0.00,Acu-Link.com,2013-03-08 09:06:00,
2013-03-08 04:21:00,28.4,23.9,30.02,NW,315,1.1,-999.0,83,-99.99,,,0.00,Acu-Link.com,2013-03-08 09:21:00,
2013-03-08 04:36:00,28.4,24.8,30.01,North,0,0.0,-999.0,86,-99.99,,,0.00,Acu-Link.com,2013-03-08 09:36:00,
2013-03-08 04:51:00,28.4,24.8,30.02,NE,45,0.0,-999.0,86,-99.99,,,0.00,Acu-Link.com,2013-03-08 09:51:00,
2013-03-08 05:07:00,26.6,23.8,30.03,NE,45,1.6,-999.0,89,-99.99,,,0.00,Acu-Link.com,2013-03-08 10:07:00,
2013-03-08 05:22:00,26.6,24.1,30.04,NNE,22,2.7,-999.0,90,-99.99,,,0.00,Acu-Link.com,2013-03-08 10:22:00,
2013-03-08 05:37:00,26.6,24.1,30.03,NNE,22,1.6,-999.0,90,-99.99,,,0.00,Acu-Link.com,2013-03-08 10:37:00,
2013-03-08 05:52:00,26.6,24.3,30.04,NNE,22,0.0,-999.0,91,-99.99,,,0.00,Acu-Link.com,2013-03-08 10:52:00,
2013-03-08 06:08:00,26.6,24.6,30.05,NNE,22,0.0,-999.0,92,-99.99,,,0.00,Acu-Link.com,2013-03-08 11:08:00,
2013-03-08 06:23:00,26.6,24.6,30.05,North,0,0.0,-999.0,92,-99.99,,,0.00,Acu-Link.com,2013-03-08 11:23:00,
2013-03-08 06:38:00,26.6,24.9,30.05,NNE,22,1.6,-999.0,93,-99.99,,,0.00,Acu-Link.com,2013-03-08 11:38:00,
2013-03-08 06:54:00,26.6,25.1,30.05,NNE,22,0.0,-999.0,94,-99.99,,,0.00,Acu-Link.com,2013-03-08 11:54:00,
2013-03-08 07:09:00,26.6,25.4,30.05,NNE,22,0.0,-999.0,95,-99.99,,,0.00,Acu-Link.com,2013-03-08 12:09:00,
2013-03-08 07:24:00,26.6,25.4,30.06,NNE,22,0.0,-999.0,95,-99.99,,,0.00,Acu-Link.com,2013-03-08 12:24:00,
2013-03-08 07:39:00,28.4,25.8,30.06,NNE,22,1.1,-999.0,90,-99.99,,,0.00,Acu-Link.com,2013-03-08 12:39:00,
2013-03-08 07:55:00,32.0,26.2,30.07,NE,45,1.6,-999.0,79,-99.99,,,0.00,Acu-Link.com,2013-03-08 12:55:00,
2013-03-08 08:10:00,37.4,25.6,30.07,ESE,112,1.1,-999.0,62,-99.99,,,0.00,Acu-Link.com,2013-03-08 13:10:00,
2013-03-08 08:25:00,39.2,25.3,30.09,ENE,67,4.7,-999.0,57,-99.99,,,0.00,Acu-Link.com,2013-03-08 13:25:00,
2013-03-08 08:40:00,41.0,26.1,30.10,NNE,22,5.6,-999.0,55,-99.99,,,0.00,Acu-Link.com,2013-03-08 13:40:00,
2013-03-08 08:56:00,42.8,26.9,30.09,NNE,22,4.0,-999.0,53,-99.99,,,0.00,Acu-Link.com,2013-03-08 13:56:00,
2013-03-08 09:11:00,42.8,26.4,30.09,NNE,22,6.3,-999.0,52,-99.99,,,0.00,Acu-Link.com,2013-03-08 14:11:00,
2013-03-08 09:26:00,44.6,26.6,30.09,NNW,337,3.6,-999.0,49,-99.99,,,0.00,Acu-Link.com,2013-03-08 14:26:00,
2013-03-08 09:42:00,44.6,26.1,30.09,East,90,2.7,-999.0,48,-99.99,,,0.00,Acu-Link.com,2013-03-08 14:42:00,
2013-03-08 09:57:00,44.6,25.1,30.09,SE,135,3.6,-999.0,46,-99.99,,,0.00,Acu-Link.com,2013-03-08 14:57:00,
2013-03-08 10:12:00,46.4,27.3,30.09,West,270,3.6,-999.0,47,-99.99,,,0.00,Acu-Link.com,2013-03-08 15:12:00,
2013-03-08 10:27:00,46.4,26.8,30.08,ESE,112,5.6,-999.0,46,-99.99,,,0.00,Acu-Link.com,2013-03-08 15:27:00,
2013-03-08 10:43:00,46.4,27.8,30.09,North,0,3.6,-999.0,48,-99.99,,,0.00,Acu-Link.com,2013-03-08 15:43:00,
2013-03-08 10:58:00,48.2,26.8,30.08,NE,45,4.7,-999.0,43,-99.99,,,0.00,Acu-Link.com,2013-03-08 15:58:00,
2013-03-08 11:13:00,48.2,26.2,30.08,ESE,112,2.7,-999.0,42,-99.99,,,0.00,Acu-Link.com,2013-03-08 16:13:00,
2013-03-08 11:29:00,50.0,28.4,30.07,NE,45,3.1,-999.0,43,-99.99,,,0.00,Acu-Link.com,2013-03-08 16:29:00,
2013-03-08 11:44:00,50.0,27.2,30.08,NNE,22,5.1,-999.0,41,-99.99,,,0.00,Acu-Link.com,2013-03-08 16:44:00,
2013-03-08 11:59:00,50.0,26.0,30.08,ESE,112,4.0,-999.0,39,-99.99,,,0.00,Acu-Link.com,2013-03-08 16:59:00,
2013-03-08 12:14:00,53.6,29.9,30.06,SSW,202,3.1,-999.0,40,-99.99,,,0.00,Acu-Link.com,2013-03-08 17:14:00,
2013-03-08 12:29:00,53.6,29.3,30.05,SSW,202,4.0,-999.0,39,-99.99,,,0.00,Acu-Link.com,2013-03-08 17:29:00,
2013-03-08 12:44:00,53.6,30.5,30.05,SSW,202,4.0,-999.0,41,-99.99,,,0.00,Acu-Link.com,2013-03-08 17:44:00,
2013-03-08 13:00:00,53.6,27.3,30.03,SSW,202,3.1,-999.0,36,-99.99,,,0.00,Acu-Link.com,2013-03-08 18:00:00,
2013-03-08 13:15:00,53.6,28.0,30.02,WSW,247,5.6,-999.0,37,-99.99,,,0.00,Acu-Link.com,2013-03-08 18:15:00,
2013-03-08 13:30:00,53.6,27.3,30.01,ESE,112,3.6,-999.0,36,-99.99,,,0.00,Acu-Link.com,2013-03-08 18:30:00,
2013-03-08 13:46:00,55.4,27.5,30.00,WSW,247,3.6,-999.0,34,-99.99,,,0.00,Acu-Link.com,2013-03-08 18:46:00,
2013-03-08 14:01:00,55.4,27.5,29.99,WNW,292,3.1,-999.0,34,-99.99,,,0.00,Acu-Link.com,2013-03-08 19:01:00,
2013-03-08 14:16:00,55.4,27.5,30.00,SSW,202,3.1,-999.0,34,-99.99,,,0.00,Acu-Link.com,2013-03-08 19:16:00,
2013-03-08 14:32:00,55.4,25.3,29.99,SW,225,3.6,-999.0,31,-99.99,,,0.00,Acu-Link.com,2013-03-08 19:32:00,
2013-03-08 14:47:00,57.2,26.1,29.99,North,0,2.0,-999.0,30,-99.99,,,0.00,Acu-Link.com,2013-03-08 19:47:00,
2013-03-08 15:02:00,57.2,26.8,29.99,South,180,2.7,-999.0,31,-99.99,,,0.00,Acu-Link.com,2013-03-08 20:02:00,
2013-03-08 15:17:00,55.4,24.5,29.98,NNW,337,3.1,-999.0,30,-99.99,,,0.00,Acu-Link.com,2013-03-08 20:17:00,
2013-03-08 15:33:00,59.0,26.8,29.99,SSW,202,3.1,-999.0,29,-99.99,,,0.00,Acu-Link.com,2013-03-08 20:33:00,
2013-03-08 15:48:00,57.2,24.4,29.98,East,90,4.0,-999.0,28,-99.99,,,0.00,Acu-Link.com,2013-03-08 20:48:00,
2013-03-08 16:03:00,57.2,24.4,29.99,SW,225,4.7,-999.0,28,-99.99,,,0.00,Acu-Link.com,2013-03-08 21:03:00,
2013-03-08 16:18:00,60.8,23.8,29.98,SSW,202,2.0,-999.0,24,-99.99,,,0.00,Acu-Link.com,2013-03-08 21:18:00,
2013-03-08 16:33:00,59.0,24.2,29.98,West,270,1.6,-999.0,26,-99.99,,,0.00,Acu-Link.com,2013-03-08 21:33:00,
2013-03-08 16:48:00,59.0,25.1,29.98,West,270,1.6,-999.0,27,-99.99,,,0.00,Acu-Link.com,2013-03-08 21:48:00,
2013-03-08 17:04:00,55.4,23.7,29.98,West,270,1.1,-999.0,29,-99.99,,,0.00,Acu-Link.com,2013-03-08 22:04:00,
2013-03-08 17:19:00,55.4,26.0,29.97,West,270,2.7,-999.0,32,-99.99,,,0.00,Acu-Link.com,2013-03-08 22:19:00,
2013-03-08 17:34:00,53.6,24.5,29.98,ENE,67,1.6,-999.0,32,-99.99,,,0.00,Acu-Link.com,2013-03-08 22:34:00,
2013-03-08 17:49:00,51.8,23.6,29.98,ESE,112,4.0,-999.0,33,-99.99,,,0.00,Acu-Link.com,2013-03-08 22:49:00,
2013-03-08 18:05:00,51.8,26.4,29.98,NNW,337,0.0,-999.0,37,-99.99,,,0.00,Acu-Link.com,2013-03-08 23:05:00,
2013-03-08 18:20:00,50.0,25.4,29.98,North,0,0.0,-999.0,38,-99.99,,,0.00,Acu-Link.com,2013-03-08 23:20:00,
2013-03-08 18:35:00,48.2,24.4,29.99,West,270,0.0,-999.0,39,-99.99,,,0.00,Acu-Link.com,2013-03-08 23:35:00,
2013-03-08 18:50:00,46.4,24.6,29.99,NNE,22,3.6,-999.0,42,-99.99,,,0.00,Acu-Link.com,2013-03-08 23:50:00,
2013-03-08 19:05:00,44.6,25.1,29.99,NNE,22,1.6,-999.0,46,-99.99,,,0.00,Acu-Link.com,2013-03-09 00:05:00,
2013-03-08 19:21:00,44.6,26.1,30.00,NE,45,1.1,-999.0,48,-99.99,,,0.00,Acu-Link.com,2013-03-09 00:21:00,
2013-03-08 19:36:00,42.8,26.4,30.01,NNE,22,1.6,-999.0,52,-99.99,,,0.00,Acu-Link.com,2013-03-09 00:36:00,
2013-03-08 19:51:00,42.8,25.9,30.02,WNW,292,1.1,-999.0,51,-99.99,,,0.00,Acu-Link.com,2013-03-09 00:51:00,
2013-03-08 20:06:00,42.8,26.9,30.02,SSW,202,2.0,-999.0,53,-99.99,,,0.00,Acu-Link.com,2013-03-09 01:06:00,
2013-03-08 20:22:00,42.8,26.4,30.02,NNW,337,2.0,-999.0,52,-99.99,,,0.00,Acu-Link.com,2013-03-09 01:22:00,
2013-03-08 20:37:00,41.0,26.1,30.03,NW,315,1.6,-999.0,55,-99.99,,,0.00,Acu-Link.com,2013-03-09 01:37:00,
2013-03-08 20:52:00,41.0,26.1,30.03,NNE,22,1.6,-999.0,55,-99.99,,,0.00,Acu-Link.com,2013-03-09 01:52:00,
2013-03-08 21:07:00,41.0,27.8,30.04,SE,135,2.0,-999.0,59,-99.99,,,0.00,Acu-Link.com,2013-03-09 02:07:00,
2013-03-08 21:22:00,39.2,25.7,30.05,NE,45,1.1,-999.0,58,-99.99,,,0.00,Acu-Link.com,2013-03-09 02:22:00,
2013-03-08 21:38:00,39.2,27.3,30.06,NNW,337,1.1,-999.0,62,-99.99,,,0.00,Acu-Link.com,2013-03-09 02:38:00,
2013-03-08 21:53:00,37.4,26.4,30.07,NE,45,1.1,-999.0,64,-99.99,,,0.00,Acu-Link.com,2013-03-09 02:53:00,
2013-03-08 22:08:00,37.4,26.4,30.07,NNE,22,1.6,-999.0,64,-99.99,,,0.00,Acu-Link.com,2013-03-09 03:08:00,
2013-03-08 22:24:00,37.4,27.1,30.08,North,0,2.7,-999.0,66,-99.99,,,0.00,Acu-Link.com,2013-03-09 03:24:00,
2013-03-08 22:39:00,35.6,25.7,30.08,NNE,22,1.6,-999.0,67,-99.99,,,0.00,Acu-Link.com,2013-03-09 03:39:00,
2013-03-08 22:54:00,35.6,26.1,30.08,WNW,292,1.1,-999.0,68,-99.99,,,0.00,Acu-Link.com,2013-03-09 03:54:00,
2013-03-08 23:09:00,35.6,26.5,30.08,NNW,337,1.1,-999.0,69,-99.99,,,0.00,Acu-Link.com,2013-03-09 04:09:00,
2013-03-08 23:25:00,33.8,25.7,30.08,NNE,22,0.0,-999.0,72,-99.99,,,0.00,Acu-Link.com,2013-03-09 04:25:00,
2013-03-08 23:40:00,33.8,25.7,30.08,NE,45,1.6,-999.0,72,-99.99,,,0.00,Acu-Link.com,2013-03-09 04:40:00,
2013-03-08 23:55:00,33.8,26.1,30.08,North,0,0.0,-999.0,73,-99.99,,,0.00,Acu-Link.com,2013-03-09 04:55:00,